createdAt,value
2018-11-06T00:00:36.645Z,11.57
2018-11-06T00:01:43.640Z,11.46
2018-11-06T00:02:36.656Z,11.60
2018-11-06T00:03:36.645Z,11.44
2018-11-06T00:04:36.691Z,11.51
2018-11-06T00:05:36.623Z,11.44
2018-11-06T00:06:36.704Z,11.39
2018-11-06T00:07:36.603Z,11.42
2018-11-06T00:08:36.549Z,11.41
2018-11-06T00:09:36.625Z,11.46
2018-11-06T00:10:36.599Z,11.48
2018-11-06T00:11:36.571Z,11.54
2018-11-06T00:12:36.587Z,11.46
2018-11-06T00:13:36.524Z,11.46
2018-11-06T00:14:36.530Z,11.41
2018-11-06T00:15:36.572Z,11.35
2018-11-06T00:16:36.482Z,11.42
2018-11-06T00:17:36.511Z,11.39
2018-11-06T00:18:36.501Z,11.45
2018-11-06T00:19:36.483Z,11.48
2018-11-06T00:20:36.634Z,11.30
2018-11-06T00:21:36.411Z,11.41
2018-11-06T00:22:36.476Z,11.39
2018-11-06T00:23:36.459Z,11.35
2018-11-06T00:24:36.418Z,11.42
2018-11-06T00:25:36.418Z,11.36
2018-11-06T00:26:36.501Z,11.46
2018-11-06T00:27:36.406Z,11.31
2018-11-06T00:28:36.377Z,11.27
2018-11-06T00:29:36.369Z,11.20
2018-11-06T00:30:36.402Z,11.16
2018-11-06T00:31:36.338Z,11.19
2018-11-06T00:32:36.373Z,11.24
2018-11-06T00:33:36.329Z,11.21
2018-11-06T00:34:36.261Z,11.12
2018-11-06T00:35:36.321Z,11.20
2018-11-06T00:36:36.345Z,11.19
2018-11-06T00:37:36.278Z,11.12
2018-11-06T00:38:36.262Z,11.16
2018-11-06T00:39:36.311Z,11.02
2018-11-06T00:40:36.252Z,11.11
2018-11-06T00:41:36.243Z,11.11
2018-11-06T00:42:36.223Z,11.09
2018-11-06T00:43:36.247Z,11.12
2018-11-06T00:44:36.199Z,11.13
2018-11-06T00:45:36.144Z,11.17
2018-11-06T00:46:36.179Z,11.16
2018-11-06T00:47:36.173Z,11.23
2018-11-06T00:48:36.154Z,11.13
2018-11-06T00:49:36.156Z,11.27
2018-11-06T00:50:36.140Z,11.23
2018-11-06T00:51:36.132Z,11.33
2018-11-06T00:52:36.119Z,11.31
2018-11-06T00:53:36.110Z,11.21
2018-11-06T00:54:36.093Z,11.24
2018-11-06T00:55:36.117Z,11.21
2018-11-06T00:56:36.072Z,11.21
2018-11-06T00:57:36.104Z,11.23
2018-11-06T00:58:36.181Z,11.19
2018-11-06T00:59:36.051Z,11.26
2018-11-06T01:00:36.085Z,11.19
2018-11-06T01:01:35.988Z,11.21
2018-11-06T01:02:35.955Z,11.28
2018-11-06T01:03:35.959Z,11.30
2018-11-06T01:04:36.056Z,11.20
2018-11-06T01:05:36.013Z,11.35
2018-11-06T01:06:35.961Z,11.39
2018-11-06T01:07:36.004Z,11.33
2018-11-06T01:08:35.906Z,11.35
2018-11-06T01:09:35.931Z,11.28
2018-11-06T01:10:35.926Z,11.31
2018-11-06T01:11:35.919Z,11.26
2018-11-06T01:12:35.890Z,11.35
2018-11-06T01:13:35.973Z,11.28
2018-11-06T01:14:35.879Z,11.24
2018-11-06T01:15:35.864Z,11.11
2018-11-06T01:16:35.803Z,11.27
2018-11-06T01:17:35.858Z,11.17
2018-11-06T01:18:35.838Z,11.06
2018-11-06T01:19:35.801Z,11.11
2018-11-06T01:20:35.809Z,11.08
2018-11-06T01:21:35.804Z,11.11
2018-11-06T01:22:35.819Z,11.03
2018-11-06T01:23:35.789Z,10.98
2018-11-06T01:24:35.758Z,11.05
2018-11-06T01:25:35.763Z,11.06
2018-11-06T01:26:35.737Z,10.98
2018-11-06T01:27:35.773Z,10.93
2018-11-06T01:28:35.729Z,10.95
2018-11-06T01:29:35.668Z,10.95
2018-11-06T01:30:35.662Z,10.95
2018-11-06T01:31:35.707Z,11.02
2018-11-06T01:32:35.710Z,10.91
2018-11-06T01:33:35.699Z,10.83
2018-11-06T01:34:35.662Z,10.90
2018-11-06T01:35:35.605Z,10.93
2018-11-06T01:36:35.649Z,10.91
2018-11-06T01:37:35.663Z,10.90
2018-11-06T01:38:35.630Z,10.90
2018-11-06T01:39:35.617Z,10.91
2018-11-06T01:40:35.598Z,10.87
2018-11-06T01:41:35.554Z,10.88
2018-11-06T01:42:35.601Z,10.80
2018-11-06T01:43:35.523Z,10.81
2018-11-06T01:44:35.545Z,10.81
2018-11-06T01:45:35.495Z,10.81
2018-11-06T01:46:35.534Z,10.98
2018-11-06T01:47:35.501Z,10.91
2018-11-06T01:48:35.505Z,10.94
2018-11-06T01:49:35.496Z,10.84
2018-11-06T01:50:35.519Z,10.88
2018-11-06T01:51:35.475Z,10.83
2018-11-06T01:52:35.460Z,10.84
2018-11-06T01:53:35.482Z,10.81
2018-11-06T01:54:35.389Z,10.83
2018-11-06T01:55:35.421Z,10.84
2018-11-06T01:56:35.421Z,10.88
2018-11-06T01:57:35.460Z,10.87
2018-11-06T01:58:35.418Z,10.75
2018-11-06T01:59:35.340Z,10.88
2018-11-06T02:00:35.375Z,10.91
2018-11-06T02:01:35.323Z,10.91
2018-11-06T02:02:35.352Z,10.83
2018-11-06T02:03:35.408Z,10.81
2018-11-06T02:04:35.333Z,10.94
2018-11-06T02:05:35.336Z,10.84
2018-11-06T02:06:35.309Z,10.80
2018-11-06T02:07:35.308Z,10.76
2018-11-06T02:08:35.336Z,10.80
2018-11-06T02:09:35.277Z,10.87
2018-11-06T02:10:35.220Z,10.87
2018-11-06T02:11:35.262Z,10.84
2018-11-06T02:12:35.345Z,10.78
2018-11-06T02:13:35.252Z,10.91
2018-11-06T02:14:35.224Z,10.80
2018-11-06T02:15:35.214Z,10.93
2018-11-06T02:16:35.265Z,10.88
2018-11-06T02:17:35.189Z,10.91
2018-11-06T02:18:35.230Z,10.91
2018-11-06T02:19:35.164Z,10.94
2018-11-06T02:20:35.159Z,10.87
2018-11-06T02:21:35.100Z,10.80
2018-11-06T02:22:35.241Z,10.84
2018-11-06T02:23:35.121Z,10.83
2018-11-06T02:24:35.154Z,10.80
2018-11-06T02:25:35.096Z,10.90
2018-11-06T02:26:35.039Z,10.91
2018-11-06T02:27:35.089Z,10.76
2018-11-06T02:28:35.118Z,10.84
2018-11-06T02:29:35.048Z,10.87
2018-11-06T02:30:35.003Z,10.80
2018-11-06T02:31:35.029Z,10.75
2018-11-06T02:32:35.074Z,10.70
2018-11-06T02:33:35.039Z,10.76
2018-11-06T02:34:35.007Z,10.75
2018-11-06T02:35:34.948Z,10.66
2018-11-06T02:36:34.971Z,10.66
2018-11-06T02:37:34.967Z,10.66
2018-11-06T02:38:34.993Z,10.63
2018-11-06T02:39:34.937Z,10.57
2018-11-06T02:40:34.974Z,10.57
2018-11-06T02:41:34.920Z,10.49
2018-11-06T02:42:34.908Z,10.51
2018-11-06T02:43:34.854Z,10.52
2018-11-06T02:44:34.885Z,10.57
2018-11-06T02:45:34.910Z,10.42
2018-11-06T02:46:34.873Z,10.46
2018-11-06T02:47:34.858Z,10.38
2018-11-06T02:48:34.811Z,10.31
2018-11-06T02:49:34.851Z,10.31
2018-11-06T02:50:34.847Z,10.34
2018-11-06T02:51:34.841Z,10.29
2018-11-06T02:52:34.817Z,10.28
2018-11-06T02:53:34.795Z,10.26
2018-11-06T02:54:34.775Z,10.17
2018-11-06T02:55:34.796Z,10.24
2018-11-06T02:56:34.751Z,10.22
2018-11-06T02:57:34.695Z,10.17
2018-11-06T02:58:34.738Z,10.17
2018-11-06T02:59:34.732Z,10.25
2018-11-06T03:00:34.743Z,10.17
2018-11-06T03:01:34.706Z,10.25
2018-11-06T03:02:34.701Z,10.17
2018-11-06T03:03:34.714Z,10.17
2018-11-06T03:04:34.667Z,10.18
2018-11-06T03:05:34.660Z,10.17
2018-11-06T03:06:34.692Z,10.18
2018-11-06T03:07:34.647Z,10.10
2018-11-06T03:08:34.621Z,10.04
2018-11-06T03:09:34.630Z,10.04
2018-11-06T03:10:34.603Z,9.96
2018-11-06T03:11:34.634Z,9.95
2018-11-06T03:12:34.597Z,9.91
2018-11-06T03:13:34.531Z,9.86
2018-11-06T03:14:34.517Z,9.91
2018-11-06T03:15:34.608Z,9.95
2018-11-06T03:16:34.615Z,9.89
2018-11-06T03:17:34.482Z,9.92
2018-11-06T03:18:34.529Z,9.99
2018-11-06T03:19:34.537Z,9.85
2018-11-06T03:20:34.449Z,9.89
2018-11-06T03:21:34.618Z,9.92
2018-11-06T03:22:34.464Z,9.95
2018-11-06T03:23:34.474Z,10.02
2018-11-06T03:24:34.451Z,10.06
2018-11-06T03:25:34.531Z,10.02
2018-11-06T03:26:34.472Z,10.01
2018-11-06T03:27:34.428Z,10.10
2018-11-06T03:28:34.419Z,10.07
2018-11-06T03:29:34.398Z,10.11
2018-11-06T03:30:34.380Z,10.13
2018-11-06T03:31:34.383Z,10.14
2018-11-06T03:32:34.366Z,10.18
2018-11-06T03:33:34.395Z,10.13
2018-11-06T03:34:34.306Z,10.18
2018-11-06T03:35:34.338Z,10.20
2018-11-06T03:36:34.323Z,10.18
2018-11-06T03:37:34.315Z,10.24
2018-11-06T03:38:34.289Z,10.25
2018-11-06T03:39:34.282Z,10.26
2018-11-06T03:40:34.277Z,10.26
2018-11-06T03:41:34.256Z,10.26
2018-11-06T03:42:34.201Z,10.26
2018-11-06T03:43:34.225Z,10.36
2018-11-06T03:44:34.240Z,10.35
2018-11-06T03:45:34.223Z,10.44
2018-11-06T03:46:34.204Z,10.42
2018-11-06T03:47:34.192Z,10.49
2018-11-06T03:48:34.165Z,10.54
2018-11-06T03:49:34.125Z,10.55
2018-11-06T03:50:34.176Z,10.60
2018-11-06T03:51:34.159Z,10.57
2018-11-06T03:52:34.133Z,10.57
2018-11-06T03:53:34.151Z,10.63
2018-11-06T03:54:34.120Z,10.63
2018-11-06T03:55:34.122Z,10.66
2018-11-06T03:56:34.098Z,10.70
2018-11-06T03:57:34.040Z,10.69
2018-11-06T03:58:34.069Z,10.75
2018-11-06T03:59:34.061Z,10.72
2018-11-06T04:00:34.079Z,10.75
2018-11-06T04:01:34.002Z,10.75
2018-11-06T04:02:34.045Z,10.75
2018-11-06T04:03:34.017Z,10.60
2018-11-06T04:04:34.007Z,10.70
2018-11-06T04:05:34.035Z,10.65
2018-11-06T04:06:33.984Z,10.57
2018-11-06T04:07:33.932Z,10.54
2018-11-06T04:08:33.970Z,10.52
2018-11-06T04:09:33.907Z,10.47
2018-11-06T04:10:33.976Z,10.42
2018-11-06T04:11:33.931Z,10.38
2018-11-06T04:12:34.011Z,10.39
2018-11-06T04:13:33.859Z,10.34
2018-11-06T04:14:33.945Z,10.32
2018-11-06T04:15:33.870Z,10.29
2018-11-06T04:16:33.880Z,10.38
2018-11-06T04:17:33.878Z,10.38
2018-11-06T04:18:33.807Z,10.38
2018-11-06T04:19:33.845Z,10.32
2018-11-06T04:20:33.852Z,10.35
2018-11-06T04:21:33.828Z,10.34
2018-11-06T04:22:33.840Z,10.42
2018-11-06T04:23:33.808Z,10.55
2018-11-06T04:24:33.877Z,10.65
2018-11-06T04:25:33.773Z,10.80
2018-11-06T04:26:33.763Z,10.87
2018-11-06T04:27:33.754Z,10.94
2018-11-06T04:28:33.852Z,11.09
2018-11-06T04:29:33.734Z,11.23
2018-11-06T04:30:33.725Z,11.12
2018-11-06T04:31:33.745Z,11.33
2018-11-06T04:32:33.767Z,11.41
2018-11-06T04:33:33.715Z,11.38
2018-11-06T04:34:33.640Z,11.48
2018-11-06T04:35:33.672Z,11.49
2018-11-06T04:36:33.680Z,11.53
2018-11-06T04:37:33.697Z,11.63
2018-11-06T04:38:33.664Z,11.63
2018-11-06T04:39:33.623Z,11.64
2018-11-06T04:40:33.610Z,11.66
2018-11-06T04:41:33.598Z,11.60
2018-11-06T04:42:33.614Z,11.60
2018-11-06T04:43:33.572Z,11.57
2018-11-06T04:44:33.572Z,11.53
2018-11-06T04:45:33.549Z,11.62
2018-11-06T04:46:33.571Z,11.41
2018-11-06T04:47:33.531Z,11.41
2018-11-06T04:48:33.526Z,11.38
2018-11-06T04:49:33.507Z,11.31
2018-11-06T04:50:33.495Z,11.26
2018-11-06T04:51:33.514Z,11.17
2018-11-06T04:52:33.478Z,11.16
2018-11-06T04:53:33.522Z,11.19
2018-11-06T04:54:33.452Z,11.16
2018-11-06T04:55:33.477Z,11.20
2018-11-06T04:56:33.437Z,11.24
2018-11-06T04:57:33.424Z,11.36
2018-11-06T04:58:33.436Z,11.39
2018-11-06T04:59:33.397Z,11.46
2018-11-06T05:00:33.388Z,11.46
2018-11-06T05:01:33.378Z,11.54
2018-11-06T05:02:33.377Z,11.53
2018-11-06T05:03:33.351Z,11.56
2018-11-06T05:04:33.341Z,11.60
2018-11-06T05:05:33.328Z,11.66
2018-11-06T05:06:33.323Z,11.66
2018-11-06T05:07:33.302Z,11.63
2018-11-06T05:08:33.255Z,11.66
2018-11-06T05:09:33.333Z,11.62
2018-11-06T05:10:33.274Z,11.66
2018-11-06T05:11:33.469Z,11.74
2018-11-06T05:12:33.256Z,11.74
2018-11-06T05:13:33.240Z,11.77
2018-11-06T05:14:33.246Z,11.77
2018-11-06T05:15:33.233Z,11.72
2018-11-06T05:16:33.208Z,11.78
2018-11-06T05:17:33.153Z,11.77
2018-11-06T05:18:33.165Z,11.77
2018-11-06T05:19:33.179Z,11.79
2018-11-06T05:20:33.200Z,11.77
2018-11-06T05:21:33.271Z,11.81
2018-11-06T05:22:33.146Z,11.84
2018-11-06T05:23:33.133Z,11.82
2018-11-06T05:24:33.127Z,11.75
2018-11-06T05:25:33.260Z,11.74
2018-11-06T05:26:33.053Z,11.69
2018-11-06T05:27:33.177Z,11.67
2018-11-06T05:28:33.083Z,11.67
2018-11-06T05:29:33.096Z,11.59
2018-11-06T05:30:33.107Z,11.62
2018-11-06T05:31:33.023Z,11.60
2018-11-06T05:32:33.035Z,11.53
2018-11-06T05:33:33.031Z,11.44
2018-11-06T05:34:33.051Z,11.39
2018-11-06T05:35:33.291Z,11.28
2018-11-06T05:36:32.994Z,11.26
2018-11-06T05:37:33.006Z,11.09
2018-11-06T05:38:32.924Z,11.19
2018-11-06T05:39:33.032Z,11.17
2018-11-06T05:40:32.902Z,11.12
2018-11-06T05:41:32.995Z,11.19
2018-11-06T05:42:32.888Z,11.13
2018-11-06T05:43:32.926Z,11.09
2018-11-06T05:44:32.859Z,11.02
2018-11-06T05:45:32.982Z,10.95
2018-11-06T05:46:32.883Z,10.93
2018-11-06T05:47:32.849Z,10.94
2018-11-06T05:48:32.870Z,10.81
2018-11-06T05:49:32.853Z,10.88
2018-11-06T05:50:32.839Z,10.84
2018-11-06T05:51:32.830Z,10.81
2018-11-06T05:52:32.815Z,10.84
2018-11-06T05:53:32.919Z,10.83
2018-11-06T05:54:32.791Z,10.76
2018-11-06T05:55:32.738Z,10.90
2018-11-06T05:56:32.776Z,10.83
2018-11-06T05:57:32.727Z,10.78
2018-11-06T05:58:32.707Z,10.78
2018-11-06T05:59:32.777Z,10.86
2018-11-06T06:00:32.749Z,10.84
2018-11-06T06:01:32.755Z,10.78
2018-11-06T06:02:32.710Z,10.80
2018-11-06T06:03:32.703Z,10.80
2018-11-06T06:04:32.646Z,10.76
2018-11-06T06:05:32.684Z,10.76
2018-11-06T06:06:32.662Z,10.76
2018-11-06T06:07:32.691Z,10.70
2018-11-06T06:08:32.646Z,10.75
2018-11-06T06:09:32.634Z,10.73
2018-11-06T06:10:32.619Z,10.72
2018-11-06T06:11:32.611Z,10.73
2018-11-06T06:12:32.633Z,10.68
2018-11-06T06:13:32.585Z,10.68
2018-11-06T06:14:32.651Z,10.76
2018-11-06T06:15:32.520Z,10.78
2018-11-06T06:16:32.572Z,10.84
2018-11-06T06:17:32.569Z,10.84
2018-11-06T06:18:32.531Z,10.76
2018-11-06T06:19:32.551Z,10.87
2018-11-06T06:20:32.614Z,10.88
2018-11-06T06:21:32.504Z,10.93
2018-11-06T06:22:32.530Z,10.95
2018-11-06T06:23:32.516Z,11.03
2018-11-06T06:24:32.417Z,11.23
2018-11-06T06:25:32.456Z,11.28
2018-11-06T06:26:32.476Z,11.31
2018-11-06T06:27:32.392Z,11.38
2018-11-06T06:28:32.526Z,11.41
2018-11-06T06:29:32.370Z,11.42
2018-11-06T06:30:32.423Z,11.39
2018-11-06T06:31:32.385Z,11.49
2018-11-06T06:32:32.407Z,11.42
2018-11-06T06:33:32.407Z,11.36
2018-11-06T06:34:32.386Z,11.46
2018-11-06T06:35:32.341Z,11.38
2018-11-06T06:36:32.332Z,11.31
2018-11-06T06:37:32.379Z,11.28
2018-11-06T06:38:32.346Z,11.36
2018-11-06T06:39:32.315Z,11.19
2018-11-06T06:40:32.290Z,11.17
2018-11-06T06:41:32.230Z,11.11
2018-11-06T06:42:32.324Z,11.08
2018-11-06T06:43:32.297Z,10.91
2018-11-06T06:44:32.229Z,10.95
2018-11-06T06:45:32.233Z,10.94
2018-11-06T06:46:32.239Z,10.91
2018-11-06T06:47:32.207Z,10.86
2018-11-06T06:48:32.202Z,10.84
2018-11-06T06:49:32.226Z,10.84
2018-11-06T06:50:32.176Z,10.84
2018-11-06T06:51:32.165Z,10.80
2018-11-06T06:52:32.157Z,10.76
2018-11-06T06:53:32.167Z,10.68
2018-11-06T06:54:32.452Z,10.76
2018-11-06T06:55:32.155Z,10.65
2018-11-06T06:56:32.140Z,10.78
2018-11-06T06:57:32.111Z,10.84
2018-11-06T06:58:32.094Z,10.75
2018-11-06T06:59:32.063Z,10.83
2018-11-06T07:00:32.068Z,10.93
2018-11-06T07:01:32.055Z,10.93
2018-11-06T07:02:32.068Z,10.99
2018-11-06T07:03:32.044Z,11.06
2018-11-06T07:04:32.062Z,11.05
2018-11-06T07:05:32.012Z,11.12
2018-11-06T07:06:32.006Z,11.21
2018-11-06T07:07:31.983Z,11.21
2018-11-06T07:08:31.933Z,11.20
2018-11-06T07:09:32.054Z,11.17
2018-11-06T07:10:31.993Z,11.23
2018-11-06T07:11:31.954Z,11.26
2018-11-06T07:12:31.934Z,11.30
2018-11-06T07:13:31.949Z,11.33
2018-11-06T07:14:31.907Z,11.42
2018-11-06T07:15:31.901Z,11.46
2018-11-06T07:16:31.892Z,11.42
2018-11-06T07:17:32.000Z,11.54
2018-11-06T07:18:31.965Z,11.51
2018-11-06T07:19:31.985Z,11.62
2018-11-06T07:20:31.854Z,11.46
2018-11-06T07:21:31.793Z,11.66
2018-11-06T07:22:31.864Z,11.66
2018-11-06T07:23:31.887Z,11.67
2018-11-06T07:24:31.850Z,11.66
2018-11-06T07:25:31.803Z,11.74
2018-11-06T07:26:31.785Z,11.78
2018-11-06T07:27:31.839Z,11.74
2018-11-06T07:28:31.762Z,11.85
2018-11-06T07:29:31.769Z,11.88
2018-11-06T07:30:31.749Z,11.94
2018-11-06T07:31:31.737Z,11.87
2018-11-06T07:32:31.729Z,11.84
2018-11-06T07:33:31.776Z,11.96
2018-11-06T07:34:31.760Z,11.93
2018-11-06T07:35:31.759Z,11.93
2018-11-06T07:36:31.674Z,12.01
2018-11-06T07:37:31.690Z,11.98
2018-11-06T07:38:31.659Z,11.97
2018-11-06T07:39:31.648Z,12.07
2018-11-06T07:40:31.707Z,12.03
2018-11-06T07:41:31.628Z,12.07
2018-11-06T07:42:31.635Z,12.15
2018-11-06T07:43:31.745Z,12.11
2018-11-06T07:44:31.589Z,12.15
2018-11-06T07:45:31.579Z,12.16
2018-11-06T07:46:31.522Z,12.18
2018-11-06T07:47:31.553Z,12.07
2018-11-06T07:48:31.584Z,12.12
2018-11-06T07:49:31.503Z,12.07
2018-11-06T07:50:31.575Z,12.11
2018-11-06T07:51:31.516Z,12.15
2018-11-06T07:52:31.499Z,12.07
2018-11-06T07:53:31.543Z,12.07
2018-11-06T07:54:31.483Z,12.15
2018-11-06T07:55:31.493Z,12.11
2018-11-06T07:56:31.496Z,12.18
2018-11-06T07:57:31.455Z,12.16
2018-11-06T07:58:31.440Z,12.11
2018-11-06T07:59:31.427Z,12.15
2018-11-06T08:00:31.473Z,12.18
2018-11-06T08:01:31.414Z,12.21
2018-11-06T08:02:31.429Z,12.19
2018-11-06T08:03:31.383Z,12.19
2018-11-06T08:04:31.396Z,12.22
2018-11-06T08:05:31.363Z,12.19
2018-11-06T08:06:31.431Z,12.21
2018-11-06T08:07:31.365Z,12.30
2018-11-06T08:08:31.331Z,12.33
2018-11-06T08:09:31.375Z,12.38
2018-11-06T08:10:31.269Z,12.33
2018-11-06T08:11:31.292Z,12.43
2018-11-06T08:12:31.392Z,12.33
2018-11-06T08:13:31.275Z,12.41
2018-11-06T08:14:31.355Z,12.44
2018-11-06T08:15:31.218Z,12.48
2018-11-06T08:16:31.411Z,12.46
2018-11-06T08:17:31.333Z,12.46
2018-11-06T08:18:31.225Z,12.49
2018-11-06T08:19:31.218Z,12.54
2018-11-06T08:20:31.188Z,12.44
2018-11-06T08:21:31.215Z,12.43
2018-11-06T08:22:31.264Z,12.51
2018-11-06T08:23:31.163Z,12.52
2018-11-06T08:24:31.182Z,12.58
2018-11-06T08:25:31.149Z,12.51
2018-11-06T08:26:31.199Z,12.43
2018-11-06T08:27:31.173Z,12.61
2018-11-06T08:28:31.136Z,12.48
2018-11-06T08:29:31.103Z,12.52
2018-11-06T08:30:31.166Z,12.56
2018-11-06T08:31:31.435Z,12.49
2018-11-06T08:32:31.716Z,12.62
2018-11-06T08:33:31.226Z,12.58
2018-11-06T08:34:31.043Z,12.46
2018-11-06T08:35:31.040Z,12.63
2018-11-06T08:36:31.115Z,12.59
2018-11-06T08:37:31.018Z,12.55
2018-11-06T08:38:31.146Z,12.46
2018-11-06T08:39:30.992Z,12.58
2018-11-06T08:40:30.982Z,12.48
2018-11-06T08:41:30.966Z,12.55
2018-11-06T08:42:31.026Z,12.59
2018-11-06T08:43:31.150Z,12.66
2018-11-06T08:44:30.941Z,12.62
2018-11-06T08:45:30.926Z,12.62
2018-11-06T08:46:30.896Z,12.51
2018-11-06T08:47:30.907Z,12.69
2018-11-06T08:48:30.892Z,12.56
2018-11-06T08:49:30.886Z,12.55
2018-11-06T08:50:30.915Z,12.61
2018-11-06T08:51:30.864Z,12.58
2018-11-06T08:52:30.846Z,12.59
2018-11-06T08:53:30.837Z,12.69
2018-11-06T08:54:30.833Z,12.58
2018-11-06T08:55:30.842Z,12.58
2018-11-06T08:56:30.840Z,12.55
2018-11-06T08:57:30.835Z,12.61
2018-11-06T08:58:30.794Z,12.56
2018-11-06T08:59:30.776Z,12.58
2018-11-06T09:00:30.791Z,12.55
2018-11-06T09:01:30.751Z,12.62
2018-11-06T09:02:30.765Z,12.59
2018-11-06T09:03:30.758Z,12.54
2018-11-06T09:04:30.719Z,12.55
2018-11-06T09:05:30.711Z,12.55
2018-11-06T09:06:30.698Z,12.55
2018-11-06T09:07:30.701Z,12.58
2018-11-06T09:08:30.743Z,12.59
2018-11-06T09:09:30.631Z,12.63
2018-11-06T09:10:30.729Z,12.62
2018-11-06T09:11:30.642Z,12.58
2018-11-06T09:12:30.706Z,12.66
2018-11-06T09:13:30.629Z,12.58
2018-11-06T09:14:30.625Z,12.62
2018-11-06T09:15:30.691Z,12.66
2018-11-06T09:16:30.585Z,12.67
2018-11-06T09:17:30.622Z,12.73
2018-11-06T09:18:30.569Z,12.76
2018-11-06T09:19:30.643Z,12.77
2018-11-06T09:20:30.546Z,12.71
2018-11-06T09:21:30.543Z,12.81
2018-11-06T09:22:30.507Z,12.74
2018-11-06T09:23:30.503Z,12.87
2018-11-06T09:24:30.524Z,12.77
2018-11-06T09:25:30.505Z,12.80
2018-11-06T09:26:30.499Z,12.84
2018-11-06T09:27:30.421Z,12.89
2018-11-06T09:28:30.516Z,12.87
2018-11-06T09:29:30.514Z,13.04
2018-11-06T09:30:30.443Z,13.01
2018-11-06T09:31:30.458Z,13.01
2018-11-06T09:32:30.434Z,13.09
2018-11-06T09:33:30.414Z,13.09
2018-11-06T09:34:30.437Z,13.01
2018-11-06T09:35:30.394Z,13.09
2018-11-06T09:36:30.368Z,13.09
2018-11-06T09:37:30.358Z,13.10
2018-11-06T09:38:30.348Z,13.27
2018-11-06T09:39:30.393Z,13.09
2018-11-06T09:41:30.393Z,13.24
2018-11-06T09:42:30.306Z,13.27
2018-11-06T09:43:30.302Z,13.32
2018-11-06T09:44:30.317Z,13.35
2018-11-06T09:45:30.314Z,13.38
2018-11-06T09:46:30.278Z,13.44
2018-11-06T09:47:30.251Z,13.46
2018-11-06T09:48:30.275Z,13.44
2018-11-06T09:49:30.227Z,13.44
2018-11-06T09:50:30.219Z,13.47
2018-11-06T09:51:30.207Z,13.59
2018-11-06T09:52:30.207Z,13.59
2018-11-06T09:53:30.239Z,13.59
2018-11-06T09:54:30.178Z,13.62
2018-11-06T09:55:30.186Z,13.53
2018-11-06T09:56:30.184Z,13.72
2018-11-06T09:57:30.149Z,13.68
2018-11-06T09:58:30.173Z,13.69
2018-11-06T09:59:30.119Z,13.63
2018-11-06T10:00:30.102Z,13.66
2018-11-06T10:01:30.099Z,13.61
2018-11-06T10:02:30.096Z,13.57
2018-11-06T10:03:30.104Z,13.61
2018-11-06T10:04:30.073Z,13.68
2018-11-06T10:05:30.057Z,13.73
2018-11-06T10:06:30.187Z,13.59
2018-11-06T10:07:30.051Z,13.61
2018-11-06T10:08:30.204Z,13.72
2018-11-06T10:09:30.044Z,13.72
2018-11-06T10:10:30.001Z,13.75
2018-11-06T10:11:30.138Z,13.75
2018-11-06T10:12:30.108Z,13.79
2018-11-06T10:13:30.046Z,13.69
2018-11-06T10:14:29.964Z,13.73
2018-11-06T10:15:29.962Z,13.79
2018-11-06T10:16:29.934Z,13.69
2018-11-06T10:17:29.923Z,13.83
2018-11-06T10:18:30.056Z,13.87
2018-11-06T10:19:29.859Z,13.86
2018-11-06T10:20:29.896Z,13.81
2018-11-06T10:21:29.883Z,13.90
2018-11-06T10:22:29.982Z,13.99
2018-11-06T10:23:29.811Z,13.99
2018-11-06T10:24:30.119Z,13.99
2018-11-06T10:25:29.880Z,14.05
2018-11-06T10:26:29.778Z,14.01
2018-11-06T10:27:29.817Z,14.16
2018-11-06T10:28:29.889Z,14.13
2018-11-06T10:29:29.802Z,14.19
2018-11-06T10:30:29.817Z,14.23
2018-11-06T10:31:29.784Z,14.16
2018-11-06T10:32:29.771Z,14.19
2018-11-06T10:33:29.748Z,14.30
2018-11-06T10:34:29.739Z,14.27
2018-11-06T10:35:29.759Z,14.29
2018-11-06T10:36:29.722Z,14.29
2018-11-06T10:37:29.707Z,14.31
2018-11-06T10:38:29.763Z,14.34
2018-11-06T10:39:29.680Z,14.38
2018-11-06T10:40:29.694Z,14.30
2018-11-06T10:41:29.668Z,14.34
2018-11-06T10:42:29.652Z,14.35
2018-11-06T10:43:29.691Z,14.41
2018-11-06T10:44:29.629Z,14.48
2018-11-06T10:45:29.625Z,14.49
2018-11-06T10:46:29.614Z,14.45
2018-11-06T10:47:29.604Z,14.52
2018-11-06T10:48:29.613Z,14.53
2018-11-06T10:49:29.539Z,14.52
2018-11-06T10:50:29.609Z,14.52
2018-11-06T10:51:29.556Z,14.57
2018-11-06T10:52:29.544Z,14.53
2018-11-06T10:53:29.532Z,14.53
2018-11-06T10:54:29.523Z,14.59
2018-11-06T10:55:29.547Z,14.56
2018-11-06T10:56:29.501Z,14.54
2018-11-06T10:57:29.530Z,14.64
2018-11-06T10:58:29.490Z,14.64
2018-11-06T10:59:29.498Z,14.60
2018-11-06T11:00:29.455Z,14.63
2018-11-06T11:01:29.458Z,14.63
2018-11-06T11:02:29.443Z,14.53
2018-11-06T11:03:29.463Z,14.63
2018-11-06T11:04:29.429Z,14.71
2018-11-06T11:05:29.366Z,14.64
2018-11-06T11:06:29.398Z,14.66
2018-11-06T11:07:29.386Z,14.82
2018-11-06T11:08:29.418Z,14.82
2018-11-06T11:09:29.372Z,14.90
2018-11-06T11:10:29.305Z,14.90
2018-11-06T11:11:29.305Z,15.03
2018-11-06T11:12:29.337Z,15.05
2018-11-06T11:13:29.430Z,15.09
2018-11-06T11:14:29.307Z,15.19
2018-11-06T11:15:29.417Z,15.25
2018-11-06T11:16:29.284Z,15.40
2018-11-06T11:17:29.333Z,15.33
2018-11-06T11:18:29.294Z,15.38
2018-11-06T11:19:29.254Z,15.41
2018-11-06T11:20:29.248Z,15.43
2018-11-06T11:21:29.185Z,15.48
2018-11-06T11:22:29.225Z,15.58
2018-11-06T11:23:29.243Z,15.49
2018-11-06T11:24:29.209Z,15.73
2018-11-06T11:25:29.260Z,15.58
2018-11-06T11:26:29.188Z,15.62
2018-11-06T11:27:29.191Z,15.70
2018-11-06T11:28:29.165Z,15.67
2018-11-06T11:29:29.221Z,15.70
2018-11-06T11:30:29.136Z,15.77
2018-11-06T11:31:29.137Z,15.77
2018-11-06T11:32:29.178Z,15.71
2018-11-06T11:33:29.126Z,15.74
2018-11-06T11:34:29.165Z,15.66
2018-11-06T11:35:29.079Z,15.74
2018-11-06T11:36:29.071Z,15.77
2018-11-06T11:37:29.123Z,15.80
2018-11-06T11:38:29.047Z,15.91
2018-11-06T11:39:29.033Z,15.88
2018-11-06T11:40:29.027Z,15.88
2018-11-06T11:41:29.012Z,15.81
2018-11-06T11:42:29.036Z,15.91
2018-11-06T11:43:28.940Z,15.86
2018-11-06T11:44:28.935Z,15.89
2018-11-06T11:45:28.977Z,15.88
2018-11-06T11:46:28.983Z,15.93
2018-11-06T11:47:28.904Z,15.84
2018-11-06T11:48:28.938Z,15.88
2018-11-06T11:49:28.923Z,15.88
2018-11-06T11:50:28.921Z,15.92
2018-11-06T11:51:28.934Z,15.92
2018-11-06T11:52:28.881Z,15.93
2018-11-06T11:53:28.838Z,15.84
2018-11-06T11:54:28.874Z,15.92
2018-11-06T11:55:28.853Z,15.85
2018-11-06T11:56:28.846Z,15.95
2018-11-06T11:57:28.899Z,15.96
2018-11-06T11:58:28.827Z,15.92
2018-11-06T11:59:28.816Z,15.92
2018-11-06T12:00:28.800Z,15.99
2018-11-06T12:01:28.795Z,15.99
2018-11-06T12:02:28.812Z,16.01
2018-11-06T12:03:28.768Z,16.08
2018-11-06T12:04:28.756Z,16.04
2018-11-06T12:05:28.762Z,15.98
2018-11-06T12:06:28.768Z,16.07
2018-11-06T12:07:28.726Z,16.08
2018-11-06T12:08:28.880Z,16.11
2018-11-06T12:09:28.702Z,16.07
2018-11-06T12:10:28.772Z,16.14
2018-11-06T12:11:28.713Z,16.17
2018-11-06T12:12:28.679Z,16.18
2018-11-06T12:13:28.700Z,16.14
2018-11-06T12:14:28.613Z,16.16
2018-11-06T12:15:28.591Z,16.18
2018-11-06T12:16:28.636Z,16.16
2018-11-06T12:17:28.655Z,16.26
2018-11-06T12:18:28.760Z,16.17
2018-11-06T12:19:28.591Z,16.25
2018-11-06T12:20:28.669Z,16.27
2018-11-06T12:21:28.528Z,16.33
2018-11-06T12:22:28.563Z,16.26
2018-11-06T12:23:28.587Z,16.33
2018-11-06T12:24:28.685Z,16.33
2018-11-06T12:25:28.635Z,16.29
2018-11-06T12:26:28.517Z,16.36
2018-11-06T12:27:28.504Z,16.30
2018-11-06T12:28:28.504Z,16.40
2018-11-06T12:29:28.524Z,16.34
2018-11-06T12:30:28.475Z,16.41
2018-11-06T12:31:28.428Z,16.41
2018-11-06T12:32:28.472Z,16.44
2018-11-06T12:33:28.468Z,16.40
2018-11-06T12:34:28.586Z,16.37
2018-11-06T12:35:28.461Z,16.37
2018-11-06T12:36:28.505Z,16.41
2018-11-06T12:37:28.410Z,16.27
2018-11-06T12:38:28.387Z,16.30
2018-11-06T12:39:28.409Z,16.34
2018-11-06T12:40:28.396Z,16.40
2018-11-06T12:41:28.308Z,16.33
2018-11-06T12:42:28.380Z,16.33
2018-11-06T12:43:28.395Z,16.41
2018-11-06T12:44:28.334Z,16.45
2018-11-06T12:45:28.348Z,16.45
2018-11-06T12:46:28.299Z,16.50
2018-11-06T12:47:28.297Z,16.47
2018-11-06T12:48:28.275Z,16.52
2018-11-06T12:49:28.324Z,16.50
2018-11-06T12:50:28.521Z,16.54
2018-11-06T12:51:28.273Z,16.62
2018-11-06T12:52:28.186Z,16.67
2018-11-06T12:53:28.262Z,16.72
2018-11-06T12:54:28.211Z,16.69